sensor_id;sensor_type;location;lat;lon;timestamp;P1;durP1;ratioP1;P2;durP2;ratioP2
59474;SDS011;45288;51.136;16.928;2023-02-26T00:00:36;8.30;;;4.30;;
59474;SDS011;45288;51.136;16.928;2023-02-26T00:03:02;10.00;;;3.83;;
59474;SDS011;45288;51.136;16.928;2023-02-26T00:05:27;7.28;;;3.90;;
59474;SDS011;45288;51.136;16.928;2023-02-26T00:07:53;7.00;;;3.60;;
59474;SDS011;45288;51.136;16.928;2023-02-26T00:10:19;5.57;;;3.53;;
59474;SDS011;45288;51.136;16.928;2023-02-26T00:12:44;9.00;;;4.00;;
59474;SDS011;45288;51.136;16.928;2023-02-26T00:15:10;7.13;;;3.40;;
59474;SDS011;45288;51.136;16.928;2023-02-26T00:17:57;7.13;;;3.40;;
59474;SDS011;45288;51.136;16.928;2023-02-26T00:20:24;7.88;;;4.05;;
59474;SDS011;45288;51.136;16.928;2023-02-26T00:22:50;6.97;;;3.80;;
59474;SDS011;45288;51.136;16.928;2023-02-26T00:25:16;6.47;;;3.97;;
59474;SDS011;45288;51.136;16.928;2023-02-26T00:27:42;6.20;;;3.80;;
59474;SDS011;45288;51.136;16.928;2023-02-26T00:30:08;4.63;;;3.40;;
59474;SDS011;45288;51.136;16.928;2023-02-26T00:32:34;6.93;;;3.55;;
59474;SDS011;45288;51.136;16.928;2023-02-26T00:35:00;6.10;;;3.40;;
59474;SDS011;45288;51.136;16.928;2023-02-26T00:42:19;5.20;;;3.30;;
59474;SDS011;45288;51.136;16.928;2023-02-26T00:44:45;5.32;;;3.25;;
59474;SDS011;45288;51.136;16.928;2023-02-26T00:50:11;6.27;;;3.30;;
59474;SDS011;45288;51.136;16.928;2023-02-26T00:52:32;6.13;;;3.50;;
59474;SDS011;45288;51.136;16.928;2023-02-26T00:55:00;5.43;;;3.60;;
59474;SDS011;45288;51.136;16.928;2023-02-26T00:57:26;5.63;;;3.45;;
59474;SDS011;45288;51.136;16.928;2023-02-26T00:59:51;5.15;;;3.50;;
59474;SDS011;45288;51.136;16.928;2023-02-26T01:02:18;5.37;;;3.13;;
59474;SDS011;45288;51.136;16.928;2023-02-26T01:04:44;5.97;;;3.40;;
59474;SDS011;45288;51.136;16.928;2023-02-26T01:07:11;7.28;;;3.25;;
59474;SDS011;45288;51.136;16.928;2023-02-26T01:09:37;6.95;;;3.17;;
59474;SDS011;45288;51.136;16.928;2023-02-26T01:12:04;5.53;;;3.67;;
59474;SDS011;45288;51.136;16.928;2023-02-26T01:14:30;7.25;;;3.80;;
59474;SDS011;45288;51.136;16.928;2023-02-26T01:22:28;6.43;;;4.00;;
59474;SDS011;45288;51.136;16.928;2023-02-26T01:24:58;7.00;;;4.28;;
59474;SDS011;45288;51.136;16.928;2023-02-26T01:27:25;6.70;;;4.13;;
59474;SDS011;45288;51.136;16.928;2023-02-26T01:29:52;7.20;;;4.35;;
59474;SDS011;45288;51.136;16.928;2023-02-26T01:35:07;7.50;;;4.05;;
59474;SDS011;45288;51.136;16.928;2023-02-26T01:42:41;7.88;;;4.60;;
59474;SDS011;45288;51.136;16.928;2023-02-26T01:45:15;8.10;;;4.13;;
59474;SDS011;45288;51.136;16.928;2023-02-26T01:47:46;9.05;;;4.30;;
59474;SDS011;45288;51.136;16.928;2023-02-26T01:50:15;6.35;;;4.00;;
59474;SDS011;45288;51.136;16.928;2023-02-26T01:55:17;6.37;;;3.80;;
59474;SDS011;45288;51.136;16.928;2023-02-26T01:57:46;6.80;;;3.83;;
59474;SDS011;45288;51.136;16.928;2023-02-26T02:00:12;5.72;;;3.40;;
59474;SDS011;45288;51.136;16.928;2023-02-26T02:02:39;7.03;;;4.00;;
59474;SDS011;45288;51.136;16.928;2023-02-26T02:05:25;7.80;;;4.00;;
59474;SDS011;45288;51.136;16.928;2023-02-26T02:07:52;7.47;;;4.25;;
59474;SDS011;45288;51.136;16.928;2023-02-26T02:10:18;7.35;;;4.13;;
59474;SDS011;45288;51.136;16.928;2023-02-26T02:15:44;6.90;;;3.92;;
59474;SDS011;45288;51.136;16.928;2023-02-26T02:18:19;6.65;;;4.30;;
59474;SDS011;45288;51.136;16.928;2023-02-26T02:21:03;8.43;;;3.72;;
59474;SDS011;45288;51.136;16.928;2023-02-26T02:23:36;6.17;;;4.10;;
59474;SDS011;45288;51.136;16.928;2023-02-26T02:31:16;6.45;;;3.70;;
59474;SDS011;45288;51.136;16.928;2023-02-26T02:36:11;5.32;;;3.35;;
59474;SDS011;45288;51.136;16.928;2023-02-26T02:38:43;5.88;;;3.97;;
59474;SDS011;45288;51.136;16.928;2023-02-26T02:41:12;6.72;;;3.58;;
59474;SDS011;45288;51.136;16.928;2023-02-26T02:43:39;8.80;;;3.93;;
59474;SDS011;45288;51.136;16.928;2023-02-26T02:46:07;5.15;;;3.60;;
59474;SDS011;45288;51.136;16.928;2023-02-26T02:48:47;6.40;;;3.90;;
59474;SDS011;45288;51.136;16.928;2023-02-26T02:51:25;6.03;;;3.53;;
59474;SDS011;45288;51.136;16.928;2023-02-26T02:53:53;6.00;;;3.38;;
59474;SDS011;45288;51.136;16.928;2023-02-26T02:56:22;5.65;;;3.40;;
59474;SDS011;45288;51.136;16.928;2023-02-26T02:58:52;5.47;;;3.50;;
59474;SDS011;45288;51.136;16.928;2023-02-26T03:01:20;5.15;;;3.30;;
59474;SDS011;45288;51.136;16.928;2023-02-26T03:03:57;6.70;;;3.42;;
59474;SDS011;45288;51.136;16.928;2023-02-26T03:06:24;4.68;;;3.38;;
59474;SDS011;45288;51.136;16.928;2023-02-26T03:08:50;6.07;;;3.65;;
59474;SDS011;45288;51.136;16.928;2023-02-26T03:11:16;5.80;;;3.63;;
59474;SDS011;45288;51.136;16.928;2023-02-26T03:13:43;5.35;;;3.60;;
59474;SDS011;45288;51.136;16.928;2023-02-26T03:27:25;5.45;;;3.15;;
59474;SDS011;45288;51.136;16.928;2023-02-26T03:35:34;7.97;;;3.80;;
59474;SDS011;45288;51.136;16.928;2023-02-26T03:37:43;6.60;;;3.65;;
59474;SDS011;45288;51.136;16.928;2023-02-26T03:43:34;5.57;;;3.27;;
59474;SDS011;45288;51.136;16.928;2023-02-26T03:45:34;6.30;;;3.40;;
59474;SDS011;45288;51.136;16.928;2023-02-26T03:48:01;5.43;;;3.42;;
59474;SDS011;45288;51.136;16.928;2023-02-26T03:50:36;6.22;;;3.22;;
59474;SDS011;45288;51.136;16.928;2023-02-26T03:53:17;6.28;;;3.50;;
59474;SDS011;45288;51.136;16.928;2023-02-26T03:58:39;6.38;;;3.40;;
59474;SDS011;45288;51.136;16.928;2023-02-26T04:01:29;4.68;;;3.15;;
59474;SDS011;45288;51.136;16.928;2023-02-26T04:03:59;4.25;;;3.03;;
59474;SDS011;45288;51.136;16.928;2023-02-26T04:06:26;5.60;;;3.22;;
59474;SDS011;45288;51.136;16.928;2023-02-26T04:08:52;5.18;;;3.22;;
59474;SDS011;45288;51.136;16.928;2023-02-26T04:11:19;4.53;;;3.00;;
59474;SDS011;45288;51.136;16.928;2023-02-26T04:13:45;5.75;;;3.40;;
59474;SDS011;45288;51.136;16.928;2023-02-26T04:16:12;5.65;;;3.72;;
59474;SDS011;45288;51.136;16.928;2023-02-26T04:18:38;7.13;;;3.63;;
59474;SDS011;45288;51.136;16.928;2023-02-26T04:21:06;7.43;;;3.85;;
59474;SDS011;45288;51.136;16.928;2023-02-26T04:23:32;7.47;;;4.20;;
59474;SDS011;45288;51.136;16.928;2023-02-26T04:25:57;7.28;;;3.90;;
59474;SDS011;45288;51.136;16.928;2023-02-26T04:28:23;5.35;;;3.58;;
59474;SDS011;45288;51.136;16.928;2023-02-26T04:30:49;6.57;;;3.80;;
59474;SDS011;45288;51.136;16.928;2023-02-26T04:33:15;5.20;;;3.20;;
59474;SDS011;45288;51.136;16.928;2023-02-26T04:35:41;6.57;;;3.80;;
59474;SDS011;45288;51.136;16.928;2023-02-26T04:38:07;6.13;;;3.40;;
59474;SDS011;45288;51.136;16.928;2023-02-26T04:40:33;5.75;;;3.45;;
59474;SDS011;45288;51.136;16.928;2023-02-26T04:42:59;5.70;;;3.40;;
59474;SDS011;45288;51.136;16.928;2023-02-26T04:45:28;4.88;;;3.15;;
59474;SDS011;45288;51.136;16.928;2023-02-26T04:47:54;5.73;;;3.40;;
59474;SDS011;45288;51.136;16.928;2023-02-26T04:50:20;5.43;;;3.00;;
59474;SDS011;45288;51.136;16.928;2023-02-26T04:52:48;5.47;;;3.17;;
59474;SDS011;45288;51.136;16.928;2023-02-26T04:55:16;5.93;;;3.05;;
59474;SDS011;45288;51.136;16.928;2023-02-26T04:57:42;7.30;;;3.42;;
59474;SDS011;45288;51.136;16.928;2023-02-26T05:00:09;7.07;;;3.33;;
59474;SDS011;45288;51.136;16.928;2023-02-26T05:02:37;6.55;;;3.17;;
59474;SDS011;45288;51.136;16.928;2023-02-26T05:05:02;6.40;;;3.67;;
59474;SDS011;45288;51.136;16.928;2023-02-26T05:07:28;5.07;;;3.05;;
59474;SDS011;45288;51.136;16.928;2023-02-26T05:09:54;6.07;;;3.47;;
59474;SDS011;45288;51.136;16.928;2023-02-26T05:12:19;5.47;;;3.03;;
59474;SDS011;45288;51.136;16.928;2023-02-26T05:14:45;5.00;;;3.03;;
59474;SDS011;45288;51.136;16.928;2023-02-26T05:17:11;4.82;;;3.15;;
59474;SDS011;45288;51.136;16.928;2023-02-26T05:19:37;6.55;;;3.40;;
59474;SDS011;45288;51.136;16.928;2023-02-26T05:22:03;8.02;;;3.72;;
59474;SDS011;45288;51.136;16.928;2023-02-26T05:24:29;6.33;;;3.17;;
59474;SDS011;45288;51.136;16.928;2023-02-26T05:26:54;5.65;;;3.30;;
59474;SDS011;45288;51.136;16.928;2023-02-26T05:29:20;6.23;;;3.20;;
59474;SDS011;45288;51.136;16.928;2023-02-26T05:31:46;8.38;;;3.42;;
59474;SDS011;45288;51.136;16.928;2023-02-26T05:34:11;4.30;;;2.90;;
59474;SDS011;45288;51.136;16.928;2023-02-26T05:36:37;7.53;;;3.50;;
59474;SDS011;45288;51.136;16.928;2023-02-26T05:39:02;6.03;;;2.97;;
59474;SDS011;45288;51.136;16.928;2023-02-26T05:41:28;5.30;;;2.90;;
59474;SDS011;45288;51.136;16.928;2023-02-26T05:43:54;6.30;;;3.45;;
59474;SDS011;45288;51.136;16.928;2023-02-26T05:46:19;5.60;;;3.00;;
59474;SDS011;45288;51.136;16.928;2023-02-26T05:48:45;5.95;;;3.33;;
59474;SDS011;45288;51.136;16.928;2023-02-26T05:51:10;6.87;;;3.30;;
59474;SDS011;45288;51.136;16.928;2023-02-26T05:53:36;4.87;;;3.10;;
59474;SDS011;45288;51.136;16.928;2023-02-26T05:56:01;6.90;;;3.22;;
59474;SDS011;45288;51.136;16.928;2023-02-26T05:58:27;5.43;;;3.00;;
59474;SDS011;45288;51.136;16.928;2023-02-26T06:00:53;4.85;;;2.90;;
59474;SDS011;45288;51.136;16.928;2023-02-26T06:03:18;4.43;;;2.60;;
59474;SDS011;45288;51.136;16.928;2023-02-26T06:05:44;4.30;;;2.93;;
59474;SDS011;45288;51.136;16.928;2023-02-26T06:08:10;5.57;;;2.75;;
59474;SDS011;45288;51.136;16.928;2023-02-26T06:10:39;5.13;;;2.92;;
59474;SDS011;45288;51.136;16.928;2023-02-26T06:13:05;6.23;;;3.10;;
59474;SDS011;45288;51.136;16.928;2023-02-26T06:15:31;6.35;;;3.45;;
59474;SDS011;45288;51.136;16.928;2023-02-26T06:17:56;6.03;;;3.50;;
59474;SDS011;45288;51.136;16.928;2023-02-26T06:20:22;5.27;;;3.53;;
59474;SDS011;45288;51.136;16.928;2023-02-26T06:22:48;6.05;;;4.10;;
59474;SDS011;45288;51.136;16.928;2023-02-26T06:25:14;7.60;;;4.00;;
59474;SDS011;45288;51.136;16.928;2023-02-26T06:27:39;5.60;;;4.00;;
59474;SDS011;45288;51.136;16.928;2023-02-26T06:30:06;9.00;;;3.90;;
59474;SDS011;45288;51.136;16.928;2023-02-26T06:32:32;7.57;;;3.88;;
59474;SDS011;45288;51.136;16.928;2023-02-26T06:34:58;6.30;;;4.20;;
59474;SDS011;45288;51.136;16.928;2023-02-26T06:37:23;6.07;;;4.00;;
59474;SDS011;45288;51.136;16.928;2023-02-26T06:39:49;7.55;;;4.20;;
59474;SDS011;45288;51.136;16.928;2023-02-26T06:42:15;5.60;;;3.67;;
59474;SDS011;45288;51.136;16.928;2023-02-26T06:44:40;6.70;;;3.87;;
59474;SDS011;45288;51.136;16.928;2023-02-26T06:47:06;7.68;;;3.60;;
59474;SDS011;45288;51.136;16.928;2023-02-26T06:49:32;6.85;;;3.50;;
59474;SDS011;45288;51.136;16.928;2023-02-26T06:51:58;5.75;;;3.45;;
59474;SDS011;45288;51.136;16.928;2023-02-26T06:54:23;5.97;;;3.50;;
59474;SDS011;45288;51.136;16.928;2023-02-26T06:56:49;5.68;;;3.53;;
59474;SDS011;45288;51.136;16.928;2023-02-26T06:59:14;4.20;;;2.80;;
59474;SDS011;45288;51.136;16.928;2023-02-26T07:01:40;5.93;;;3.33;;
59474;SDS011;45288;51.136;16.928;2023-02-26T07:04:06;6.05;;;3.15;;
59474;SDS011;45288;51.136;16.928;2023-02-26T07:06:32;5.17;;;3.10;;
59474;SDS011;45288;51.136;16.928;2023-02-26T07:08:57;5.47;;;3.57;;
59474;SDS011;45288;51.136;16.928;2023-02-26T07:11:23;4.65;;;3.20;;
59474;SDS011;45288;51.136;16.928;2023-02-26T07:13:49;5.93;;;3.50;;
59474;SDS011;45288;51.136;16.928;2023-02-26T07:16:16;6.97;;;3.50;;
59474;SDS011;45288;51.136;16.928;2023-02-26T07:18:41;7.00;;;3.90;;
59474;SDS011;45288;51.136;16.928;2023-02-26T07:21:07;5.80;;;3.70;;
59474;SDS011;45288;51.136;16.928;2023-02-26T07:23:33;5.22;;;3.60;;
59474;SDS011;45288;51.136;16.928;2023-02-26T07:25:58;6.17;;;3.53;;
59474;SDS011;45288;51.136;16.928;2023-02-26T07:28:24;5.40;;;3.28;;
59474;SDS011;45288;51.136;16.928;2023-02-26T07:30:50;6.28;;;3.30;;
59474;SDS011;45288;51.136;16.928;2023-02-26T07:33:18;6.03;;;3.00;;
59474;SDS011;45288;51.136;16.928;2023-02-26T07:35:43;6.10;;;3.50;;
59474;SDS011;45288;51.136;16.928;2023-02-26T07:38:09;5.93;;;3.08;;
59474;SDS011;45288;51.136;16.928;2023-02-26T07:40:34;5.37;;;3.10;;
59474;SDS011;45288;51.136;16.928;2023-02-26T07:43:00;6.20;;;3.47;;
59474;SDS011;45288;51.136;16.928;2023-02-26T07:45:26;5.27;;;3.10;;
59474;SDS011;45288;51.136;16.928;2023-02-26T07:47:52;5.70;;;3.20;;
59474;SDS011;45288;51.136;16.928;2023-02-26T07:50:17;5.07;;;3.40;;
59474;SDS011;45288;51.136;16.928;2023-02-26T07:52:43;7.53;;;3.55;;
59474;SDS011;45288;51.136;16.928;2023-02-26T07:55:10;6.55;;;3.35;;
59474;SDS011;45288;51.136;16.928;2023-02-26T07:57:36;6.25;;;3.40;;
59474;SDS011;45288;51.136;16.928;2023-02-26T08:00:01;6.20;;;3.90;;
59474;SDS011;45288;51.136;16.928;2023-02-26T08:02:37;7.30;;;4.07;;
59474;SDS011;45288;51.136;16.928;2023-02-26T08:05:03;7.50;;;3.85;;
59474;SDS011;45288;51.136;16.928;2023-02-26T08:07:29;6.20;;;3.58;;
59474;SDS011;45288;51.136;16.928;2023-02-26T08:09:55;7.20;;;4.30;;
59474;SDS011;45288;51.136;16.928;2023-02-26T08:12:20;5.70;;;3.57;;
59474;SDS011;45288;51.136;16.928;2023-02-26T08:14:46;7.07;;;4.20;;
59474;SDS011;45288;51.136;16.928;2023-02-26T08:17:12;6.68;;;4.13;;
59474;SDS011;45288;51.136;16.928;2023-02-26T08:19:38;7.22;;;4.20;;
59474;SDS011;45288;51.136;16.928;2023-02-26T08:22:03;6.57;;;4.23;;
59474;SDS011;45288;51.136;16.928;2023-02-26T08:24:29;7.85;;;4.05;;
59474;SDS011;45288;51.136;16.928;2023-02-26T08:26:55;7.23;;;4.10;;
59474;SDS011;45288;51.136;16.928;2023-02-26T08:29:21;8.07;;;4.00;;
59474;SDS011;45288;51.136;16.928;2023-02-26T08:31:47;5.33;;;3.60;;
59474;SDS011;45288;51.136;16.928;2023-02-26T08:34:12;5.70;;;3.70;;
59474;SDS011;45288;51.136;16.928;2023-02-26T08:36:38;5.63;;;3.60;;
59474;SDS011;45288;51.136;16.928;2023-02-26T08:39:03;5.30;;;3.63;;
59474;SDS011;45288;51.136;16.928;2023-02-26T08:41:29;6.47;;;3.67;;
59474;SDS011;45288;51.136;16.928;2023-02-26T08:43:57;5.85;;;4.00;;
59474;SDS011;45288;51.136;16.928;2023-02-26T08:46:23;6.55;;;3.85;;
59474;SDS011;45288;51.136;16.928;2023-02-26T08:48:49;6.28;;;3.67;;
59474;SDS011;45288;51.136;16.928;2023-02-26T08:51:14;8.80;;;4.10;;
59474;SDS011;45288;51.136;16.928;2023-02-26T08:53:40;6.40;;;3.88;;
59474;SDS011;45288;51.136;16.928;2023-02-26T08:56:06;6.17;;;3.80;;
59474;SDS011;45288;51.136;16.928;2023-02-26T08:58:31;6.20;;;3.90;;
59474;SDS011;45288;51.136;16.928;2023-02-26T09:00:57;5.88;;;3.75;;
59474;SDS011;45288;51.136;16.928;2023-02-26T09:03:22;9.83;;;5.00;;
59474;SDS011;45288;51.136;16.928;2023-02-26T09:05:49;7.80;;;4.45;;
59474;SDS011;45288;51.136;16.928;2023-02-26T09:08:15;6.93;;;3.90;;
59474;SDS011;45288;51.136;16.928;2023-02-26T09:10:41;6.23;;;3.60;;
59474;SDS011;45288;51.136;16.928;2023-02-26T09:13:07;7.95;;;4.25;;
59474;SDS011;45288;51.136;16.928;2023-02-26T09:15:32;6.22;;;3.78;;
59474;SDS011;45288;51.136;16.928;2023-02-26T09:17:59;5.28;;;3.65;;
59474;SDS011;45288;51.136;16.928;2023-02-26T09:20:25;7.27;;;4.47;;
59474;SDS011;45288;51.136;16.928;2023-02-26T09:22:52;7.40;;;4.30;;
59474;SDS011;45288;51.136;16.928;2023-02-26T09:25:17;5.07;;;3.38;;
59474;SDS011;45288;51.136;16.928;2023-02-26T09:27:43;5.82;;;3.38;;
59474;SDS011;45288;51.136;16.928;2023-02-26T09:30:09;5.73;;;3.70;;
59474;SDS011;45288;51.136;16.928;2023-02-26T09:32:34;6.50;;;3.60;;
59474;SDS011;45288;51.136;16.928;2023-02-26T09:35:00;7.03;;;3.65;;
59474;SDS011;45288;51.136;16.928;2023-02-26T09:37:27;7.57;;;3.60;;
59474;SDS011;45288;51.136;16.928;2023-02-26T09:39:52;5.90;;;3.60;;
59474;SDS011;45288;51.136;16.928;2023-02-26T09:44:49;8.80;;;4.35;;
59474;SDS011;45288;51.136;16.928;2023-02-26T09:47:20;5.70;;;3.70;;
59474;SDS011;45288;51.136;16.928;2023-02-26T09:54:59;5.13;;;3.88;;
59474;SDS011;45288;51.136;16.928;2023-02-26T09:57:26;6.20;;;3.88;;
59474;SDS011;45288;51.136;16.928;2023-02-26T09:59:53;6.63;;;3.72;;
59474;SDS011;45288;51.136;16.928;2023-02-26T10:02:25;6.28;;;3.40;;
59474;SDS011;45288;51.136;16.928;2023-02-26T10:05:07;8.07;;;4.20;;
59474;SDS011;45288;51.136;16.928;2023-02-26T10:10:58;5.47;;;3.55;;
59474;SDS011;45288;51.136;16.928;2023-02-26T10:13:04;6.38;;;3.70;;
59474;SDS011;45288;51.136;16.928;2023-02-26T10:15:36;6.85;;;3.55;;
59474;SDS011;45288;51.136;16.928;2023-02-26T10:18:10;6.55;;;3.67;;
59474;SDS011;45288;51.136;16.928;2023-02-26T10:24:13;7.45;;;4.00;;
59474;SDS011;45288;51.136;16.928;2023-02-26T10:31:01;5.10;;;3.50;;
59474;SDS011;45288;51.136;16.928;2023-02-26T10:33:32;5.10;;;3.42;;
59474;SDS011;45288;51.136;16.928;2023-02-26T10:36:03;5.60;;;3.70;;
59474;SDS011;45288;51.136;16.928;2023-02-26T10:38:32;4.43;;;3.28;;
59474;SDS011;45288;51.136;16.928;2023-02-26T10:40:59;5.70;;;3.40;;
59474;SDS011;45288;51.136;16.928;2023-02-26T10:45:56;4.32;;;3.20;;
59474;SDS011;45288;51.136;16.928;2023-02-26T10:48:30;4.20;;;3.00;;
59474;SDS011;45288;51.136;16.928;2023-02-26T10:50:59;4.32;;;3.17;;
59474;SDS011;45288;51.136;16.928;2023-02-26T10:53:26;5.15;;;3.10;;
59474;SDS011;45288;51.136;16.928;2023-02-26T10:55:55;5.47;;;3.30;;
59474;SDS011;45288;51.136;16.928;2023-02-26T10:58:23;4.72;;;2.90;;
59474;SDS011;45288;51.136;16.928;2023-02-26T11:00:50;5.80;;;3.13;;
59474;SDS011;45288;51.136;16.928;2023-02-26T11:03:22;4.47;;;3.03;;
59474;SDS011;45288;51.136;16.928;2023-02-26T11:05:51;6.07;;;3.65;;
59474;SDS011;45288;51.136;16.928;2023-02-26T11:10:52;5.67;;;3.13;;
59474;SDS011;45288;51.136;16.928;2023-02-26T11:13:20;4.65;;;3.47;;
59474;SDS011;45288;51.136;16.928;2023-02-26T11:15:46;6.35;;;3.53;;
59474;SDS011;45288;51.136;16.928;2023-02-26T11:18:14;7.50;;;3.57;;
59474;SDS011;45288;51.136;16.928;2023-02-26T11:20:43;6.00;;;3.65;;
59474;SDS011;45288;51.136;16.928;2023-02-26T11:23:11;5.93;;;3.60;;
59474;SDS011;45288;51.136;16.928;2023-02-26T11:25:37;5.95;;;3.72;;
59474;SDS011;45288;51.136;16.928;2023-02-26T11:28:04;6.43;;;3.75;;
59474;SDS011;45288;51.136;16.928;2023-02-26T11:30:32;6.65;;;3.85;;
59474;SDS011;45288;51.136;16.928;2023-02-26T11:33:03;5.63;;;3.78;;
59474;SDS011;45288;51.136;16.928;2023-02-26T11:35:29;7.03;;;4.13;;
59474;SDS011;45288;51.136;16.928;2023-02-26T11:37:58;6.47;;;3.70;;
59474;SDS011;45288;51.136;16.928;2023-02-26T11:40:37;6.80;;;3.60;;
59474;SDS011;45288;51.136;16.928;2023-02-26T11:43:04;5.23;;;3.57;;
59474;SDS011;45288;51.136;16.928;2023-02-26T11:45:32;6.07;;;3.60;;
59474;SDS011;45288;51.136;16.928;2023-02-26T11:47:59;5.35;;;3.50;;
59474;SDS011;45288;51.136;16.928;2023-02-26T11:50:27;5.45;;;3.70;;
59474;SDS011;45288;51.136;16.928;2023-02-26T11:52:55;5.75;;;3.70;;
59474;SDS011;45288;51.136;16.928;2023-02-26T11:55:27;7.10;;;3.50;;
59474;SDS011;45288;51.136;16.928;2023-02-26T11:57:53;7.25;;;3.63;;
59474;SDS011;45288;51.136;16.928;2023-02-26T12:00:22;5.10;;;3.60;;
59474;SDS011;45288;51.136;16.928;2023-02-26T12:02:48;5.22;;;3.28;;
59474;SDS011;45288;51.136;16.928;2023-02-26T12:05:15;5.70;;;3.33;;
59474;SDS011;45288;51.136;16.928;2023-02-26T12:07:41;4.57;;;2.63;;
59474;SDS011;45288;51.136;16.928;2023-02-26T12:10:14;4.45;;;2.92;;
59474;SDS011;45288;51.136;16.928;2023-02-26T12:12:51;4.77;;;3.13;;
59474;SDS011;45288;51.136;16.928;2023-02-26T12:15:22;5.65;;;3.22;;
59474;SDS011;45288;51.136;16.928;2023-02-26T12:18:07;5.10;;;3.70;;
59474;SDS011;45288;51.136;16.928;2023-02-26T12:23:54;7.38;;;3.67;;
59474;SDS011;45288;51.136;16.928;2023-02-26T12:29:12;7.82;;;3.78;;
59474;SDS011;45288;51.136;16.928;2023-02-26T12:48:04;5.05;;;2.85;;
59474;SDS011;45288;51.136;16.928;2023-02-26T12:55:38;5.47;;;2.90;;
59474;SDS011;45288;51.136;16.928;2023-02-26T13:05:40;4.63;;;2.10;;
59474;SDS011;45288;51.136;16.928;2023-02-26T13:08:24;3.67;;;2.28;;
59474;SDS011;45288;51.136;16.928;2023-02-26T13:11:05;3.80;;;2.40;;
59474;SDS011;45288;51.136;16.928;2023-02-26T13:13:50;4.40;;;2.55;;
59474;SDS011;45288;51.136;16.928;2023-02-26T13:21:21;3.78;;;2.30;;
59474;SDS011;45288;51.136;16.928;2023-02-26T13:23:55;4.57;;;2.73;;
59474;SDS011;45288;51.136;16.928;2023-02-26T13:26:21;5.30;;;2.70;;
59474;SDS011;45288;51.136;16.928;2023-02-26T13:31:17;4.85;;;3.40;;
59474;SDS011;45288;51.136;16.928;2023-02-26T13:33:44;8.82;;;4.85;;
59474;SDS011;45288;51.136;16.928;2023-02-26T13:36:10;5.55;;;3.13;;
59474;SDS011;45288;51.136;16.928;2023-02-26T13:41:11;3.90;;;2.50;;
59474;SDS011;45288;51.136;16.928;2023-02-26T13:54:02;5.20;;;3.30;;
59474;SDS011;45288;51.136;16.928;2023-02-26T14:01:32;4.55;;;3.03;;
59474;SDS011;45288;51.136;16.928;2023-02-26T14:06:55;6.63;;;3.53;;
59474;SDS011;45288;51.136;16.928;2023-02-26T14:11:56;7.43;;;4.70;;
59474;SDS011;45288;51.136;16.928;2023-02-26T14:14:24;7.88;;;4.00;;
59474;SDS011;45288;51.136;16.928;2023-02-26T14:19:26;7.03;;;4.28;;
59474;SDS011;45288;51.136;16.928;2023-02-26T14:21:54;9.63;;;4.38;;
59474;SDS011;45288;51.136;16.928;2023-02-26T14:24:42;7.57;;;3.95;;
59474;SDS011;45288;51.136;16.928;2023-02-26T14:29:55;6.78;;;4.05;;
59474;SDS011;45288;51.136;16.928;2023-02-26T14:35:14;7.30;;;3.67;;
59474;SDS011;45288;51.136;16.928;2023-02-26T14:37:40;6.10;;;3.13;;
59474;SDS011;45288;51.136;16.928;2023-02-26T14:40:18;6.00;;;3.28;;
59474;SDS011;45288;51.136;16.928;2023-02-26T14:42:47;5.37;;;3.13;;
59474;SDS011;45288;51.136;16.928;2023-02-26T14:47:40;6.43;;;3.50;;
59474;SDS011;45288;51.136;16.928;2023-02-26T14:50:06;5.43;;;3.13;;
59474;SDS011;45288;51.136;16.928;2023-02-26T14:52:36;5.38;;;3.10;;
59474;SDS011;45288;51.136;16.928;2023-02-26T14:57:40;6.00;;;3.17;;
59474;SDS011;45288;51.136;16.928;2023-02-26T15:25:54;8.20;;;3.42;;
59474;SDS011;45288;51.136;16.928;2023-02-26T15:28:57;6.07;;;3.30;;
59474;SDS011;45288;51.136;16.928;2023-02-26T15:31:15;7.20;;;3.42;;
59474;SDS011;45288;51.136;16.928;2023-02-26T15:33:43;6.78;;;3.63;;
59474;SDS011;45288;51.136;16.928;2023-02-26T15:36:13;7.13;;;3.13;;
59474;SDS011;45288;51.136;16.928;2023-02-26T15:38:42;7.18;;;3.50;;
59474;SDS011;45288;51.136;16.928;2023-02-26T15:41:08;7.20;;;3.30;;
59474;SDS011;45288;51.136;16.928;2023-02-26T15:43:34;7.47;;;3.45;;
59474;SDS011;45288;51.136;16.928;2023-02-26T15:45:59;8.37;;;3.80;;
59474;SDS011;45288;51.136;16.928;2023-02-26T15:48:35;7.50;;;3.95;;
59474;SDS011;45288;51.136;16.928;2023-02-26T15:51:03;8.10;;;3.53;;
59474;SDS011;45288;51.136;16.928;2023-02-26T15:53:37;7.72;;;3.65;;
59474;SDS011;45288;51.136;16.928;2023-02-26T15:56:13;8.75;;;4.25;;
59474;SDS011;45288;51.136;16.928;2023-02-26T15:59:17;6.97;;;3.30;;
59474;SDS011;45288;51.136;16.928;2023-02-26T16:01:35;7.50;;;3.70;;
59474;SDS011;45288;51.136;16.928;2023-02-26T16:04:02;6.35;;;3.72;;
59474;SDS011;45288;51.136;16.928;2023-02-26T16:06:40;7.60;;;4.23;;
59474;SDS011;45288;51.136;16.928;2023-02-26T16:09:07;8.30;;;4.40;;
59474;SDS011;45288;51.136;16.928;2023-02-26T16:11:37;8.77;;;4.30;;
59474;SDS011;45288;51.136;16.928;2023-02-26T16:14:04;9.52;;;4.72;;
59474;SDS011;45288;51.136;16.928;2023-02-26T16:16:38;8.85;;;4.43;;
59474;SDS011;45288;51.136;16.928;2023-02-26T16:19:05;12.05;;;5.78;;
59474;SDS011;45288;51.136;16.928;2023-02-26T16:21:34;10.70;;;4.97;;
59474;SDS011;45288;51.136;16.928;2023-02-26T16:24:01;10.93;;;4.90;;
59474;SDS011;45288;51.136;16.928;2023-02-26T16:26:30;8.23;;;4.35;;
59474;SDS011;45288;51.136;16.928;2023-02-26T16:29:01;8.85;;;4.20;;
59474;SDS011;45288;51.136;16.928;2023-02-26T16:31:29;10.00;;;4.67;;
59474;SDS011;45288;51.136;16.928;2023-02-26T16:34:02;8.93;;;4.50;;
59474;SDS011;45288;51.136;16.928;2023-02-26T16:36:29;9.52;;;4.38;;
59474;SDS011;45288;51.136;16.928;2023-02-26T16:38:57;9.55;;;4.50;;
59474;SDS011;45288;51.136;16.928;2023-02-26T16:41:23;9.13;;;4.30;;
59474;SDS011;45288;51.136;16.928;2023-02-26T16:46:38;8.00;;;4.50;;
59474;SDS011;45288;51.136;16.928;2023-02-26T16:49:14;8.45;;;4.70;;
59474;SDS011;45288;51.136;16.928;2023-02-26T16:51:41;8.77;;;4.60;;
59474;SDS011;45288;51.136;16.928;2023-02-26T16:54:12;10.17;;;5.03;;
59474;SDS011;45288;51.136;16.928;2023-02-26T16:56:39;8.00;;;4.60;;
59474;SDS011;45288;51.136;16.928;2023-02-26T16:59:14;9.57;;;4.32;;
59474;SDS011;45288;51.136;16.928;2023-02-26T17:01:51;9.63;;;4.57;;
59474;SDS011;45288;51.136;16.928;2023-02-26T17:04:18;7.32;;;4.10;;
59474;SDS011;45288;51.136;16.928;2023-02-26T17:06:44;8.30;;;4.75;;
59474;SDS011;45288;51.136;16.928;2023-02-26T17:09:55;10.82;;;4.75;;
59474;SDS011;45288;51.136;16.928;2023-02-26T17:12:14;12.15;;;5.30;;
59474;SDS011;45288;51.136;16.928;2023-02-26T17:14:40;9.00;;;4.90;;
59474;SDS011;45288;51.136;16.928;2023-02-26T17:17:07;12.85;;;5.45;;
59474;SDS011;45288;51.136;16.928;2023-02-26T17:19:33;10.95;;;5.80;;
59474;SDS011;45288;51.136;16.928;2023-02-26T17:21:59;14.20;;;6.60;;
59474;SDS011;45288;51.136;16.928;2023-02-26T17:24:32;13.03;;;7.17;;
59474;SDS011;45288;51.136;16.928;2023-02-26T17:26:58;12.43;;;6.95;;
59474;SDS011;45288;51.136;16.928;2023-02-26T17:31:58;16.40;;;7.45;;
59474;SDS011;45288;51.136;16.928;2023-02-26T17:34:24;18.70;;;8.10;;
59474;SDS011;45288;51.136;16.928;2023-02-26T17:36:50;15.97;;;9.17;;
59474;SDS011;45288;51.136;16.928;2023-02-26T17:39:16;21.52;;;9.07;;
59474;SDS011;45288;51.136;16.928;2023-02-26T17:41:42;14.87;;;8.03;;
59474;SDS011;45288;51.136;16.928;2023-02-26T17:44:12;16.15;;;7.78;;
59474;SDS011;45288;51.136;16.928;2023-02-26T17:46:38;11.93;;;6.63;;
59474;SDS011;45288;51.136;16.928;2023-02-26T17:49:04;12.73;;;6.75;;